createdAt,value
2023-11-24T00:00:22.115Z,81.70
2023-11-24T00:05:26.255Z,81.70
2023-11-24T00:10:30.068Z,81.50
2023-11-24T00:15:35.039Z,81.40
2023-11-24T00:20:38.635Z,81.30
2023-11-24T00:25:42.033Z,81.30
2023-11-24T00:30:46.814Z,81.40
2023-11-24T00:35:50.597Z,81.30
2023-11-24T00:40:54.456Z,81.30
2023-11-24T00:45:59.266Z,81.10
2023-11-24T00:51:02.674Z,81.00
2023-11-24T00:56:07.355Z,81.10
2023-11-24T01:01:12.957Z,81.00
2023-11-24T01:06:16.402Z,81.10
2023-11-24T01:11:19.820Z,81.10
2023-11-24T01:16:24.721Z,81.30
2023-11-24T01:21:28.206Z,81.10
2023-11-24T01:26:31.874Z,81.30
2023-11-24T01:31:36.713Z,81.40
2023-11-24T01:36:40.232Z,81.10
2023-11-24T01:41:44.789Z,81.50
2023-11-24T01:46:49.699Z,81.70
2023-11-24T01:51:55.974Z,81.60
2023-11-24T01:57:00.482Z,81.30
2023-11-24T02:02:06.224Z,81.50
2023-11-24T02:07:10.348Z,81.70
2023-11-24T02:12:14.395Z,81.50
2023-11-24T02:17:19.241Z,81.50
2023-11-24T02:22:22.684Z,81.30
2023-11-24T02:27:27.510Z,81.70
2023-11-24T02:32:31.004Z,81.60
2023-11-24T02:37:34.571Z,81.60
2023-11-24T02:42:39.541Z,81.80
2023-11-24T02:47:43.040Z,81.70
2023-11-24T02:52:46.970Z,81.60
2023-11-24T02:57:51.843Z,81.50
2023-11-24T03:02:55.766Z,81.70
2023-11-24T03:07:59.526Z,82.20
2023-11-24T03:13:04.422Z,81.60
2023-11-24T03:18:08.109Z,81.50
2023-11-24T03:23:11.564Z,81.20
2023-11-24T03:28:17.231Z,81.20
2023-11-24T03:33:21.369Z,82.00
2023-11-24T03:38:25.799Z,81.30
2023-11-24T03:43:30.626Z,81.30
2023-11-24T03:48:34.113Z,81.90
2023-11-24T03:53:37.656Z,81.60
2023-11-24T03:58:44.373Z,81.00
2023-11-24T04:03:48.612Z,80.70
2023-11-24T04:08:52.743Z,80.40
2023-11-24T04:13:58.239Z,80.10
2023-11-24T04:19:01.741Z,79.90
2023-11-24T04:24:06.362Z,79.70
2023-11-24T04:29:11.149Z,79.50
2023-11-24T04:34:14.666Z,79.20
2023-11-24T04:39:18.156Z,79.00
2023-11-24T04:44:23.148Z,79.00
2023-11-24T04:49:26.542Z,78.90
2023-11-24T04:54:30.014Z,78.80
2023-11-24T04:59:34.919Z,78.70
2023-11-24T05:04:38.828Z,78.80
2023-11-24T05:09:42.799Z,78.60
2023-11-24T05:14:47.826Z,78.70
2023-11-24T05:19:51.250Z,78.60
2023-11-24T05:24:55.852Z,78.60
2023-11-24T05:30:00.755Z,78.60
2023-11-24T05:35:04.607Z,78.50
2023-11-24T05:40:13.481Z,78.50
2023-11-24T05:45:18.832Z,78.40
2023-11-24T05:50:23.885Z,78.20
2023-11-24T05:55:27.738Z,78.10
2023-11-24T06:00:32.622Z,78.20
2023-11-24T06:05:36.095Z,78.10
2023-11-24T06:10:39.504Z,78.50
2023-11-24T06:15:44.504Z,78.30
2023-11-24T06:20:48.011Z,78.30
2023-11-24T06:25:51.407Z,78.70
2023-11-24T06:30:56.300Z,78.40
2023-11-24T06:36:01.506Z,78.90
2023-11-24T06:41:05.085Z,78.30
2023-11-24T06:46:10.054Z,78.50
2023-11-24T06:51:13.796Z,79.00
2023-11-24T06:56:17.208Z,78.30
2023-11-24T07:01:32.856Z,78.80
2023-11-24T07:06:36.789Z,78.60
2023-11-24T07:11:41.486Z,78.60
2023-11-24T07:16:46.275Z,78.80
2023-11-24T07:21:49.744Z,78.30
2023-11-24T07:26:55.314Z,75.30
2023-11-24T07:32:00.125Z,76.60
2023-11-24T07:37:03.846Z,77.30
2023-11-24T07:42:07.454Z,77.60
2023-11-24T07:47:15.713Z,77.90
2023-11-24T07:52:19.123Z,78.80
2023-11-24T07:57:23.338Z,78.10
2023-11-24T08:02:28.565Z,78.20
2023-11-24T08:07:32.199Z,78.90
2023-11-24T08:12:35.755Z,78.80
2023-11-24T08:17:41.096Z,78.60
2023-11-24T08:22:44.586Z,78.70
2023-11-24T08:27:48.279Z,79.00
2023-11-24T08:32:53.158Z,79.30
2023-11-24T08:37:56.589Z,79.40
2023-11-24T08:43:00.358Z,79.60
2023-11-24T08:48:06.254Z,79.60
2023-11-24T08:53:09.792Z,79.20
2023-11-24T08:58:13.945Z,79.00
2023-11-24T09:03:19.570Z,78.70
2023-11-24T09:08:23.055Z,78.50
2023-11-24T09:13:27.251Z,78.30
2023-11-24T09:18:32.046Z,78.50
2023-11-24T09:23:36.275Z,74.60
2023-11-24T09:28:39.703Z,71.00
2023-11-24T09:33:44.529Z,69.40
2023-11-24T09:38:49.384Z,70.80
2023-11-24T09:43:52.859Z,71.10
2023-11-24T09:48:58.460Z,71.60
2023-11-24T09:54:04.763Z,71.60
2023-11-24T09:59:09.992Z,71.90
2023-11-24T10:04:15.697Z,72.40
2023-11-24T10:09:26.328Z,72.70
2023-11-24T10:14:29.813Z,73.10
2023-11-24T10:19:34.937Z,73.20
2023-11-24T10:24:39.557Z,73.50
2023-11-24T10:29:43.015Z,73.70
2023-11-24T10:34:48.794Z,73.90
2023-11-24T10:40:01.577Z,75.90
2023-11-24T10:45:09.038Z,73.40
2023-11-24T10:50:18.750Z,68.40
2023-11-24T10:55:22.565Z,66.20
2023-11-24T11:00:28.112Z,64.50
2023-11-24T11:05:59.366Z,64.90
2023-11-24T11:12:20.641Z,69.30
2023-11-24T11:17:26.526Z,70.00
2023-11-24T11:22:37.371Z,70.10
2023-11-24T11:27:41.699Z,70.70
2023-11-24T11:32:45.165Z,71.40
2023-11-24T11:37:50.187Z,71.70
2023-11-24T11:42:59.485Z,72.00
2023-11-24T11:48:05.234Z,74.90
2023-11-24T11:53:10.976Z,72.70
2023-11-24T11:58:15.055Z,72.70
2023-11-24T12:03:20.391Z,72.80
2023-11-24T12:08:28.518Z,73.20
2023-11-24T12:13:31.918Z,73.00
2023-11-24T12:18:37.212Z,72.80
2023-11-24T12:23:43.349Z,72.70
2023-11-24T12:28:47.824Z,72.80
2023-11-24T12:33:53.081Z,73.10
2023-11-24T12:38:57.960Z,73.10
2023-11-24T12:44:02.017Z,73.10
2023-11-24T12:49:06.166Z,73.30
2023-11-24T12:54:11.753Z,73.50
2023-11-24T12:59:15.140Z,73.60
2023-11-24T13:04:18.799Z,73.70
2023-11-24T13:09:23.874Z,73.70
2023-11-24T13:14:27.761Z,73.90
2023-11-24T13:19:33.375Z,74.00
2023-11-24T13:24:39.764Z,74.00
2023-11-24T13:29:44.532Z,74.10
2023-11-24T13:34:47.993Z,74.00
2023-11-24T13:39:52.838Z,74.20
2023-11-24T13:44:56.272Z,74.10
2023-11-24T13:50:00.719Z,74.10
2023-11-24T13:55:07.881Z,75.60
2023-11-24T14:00:13.588Z,77.10
2023-11-24T14:05:16.995Z,77.60
2023-11-24T14:10:23.035Z,78.10
2023-11-24T14:15:28.480Z,78.40
2023-11-24T14:20:31.974Z,78.50
2023-11-24T14:25:36.725Z,78.30
2023-11-24T14:30:40.911Z,78.30
2023-11-24T14:35:44.521Z,78.20
2023-11-24T14:40:50.775Z,78.00
2023-11-24T14:45:55.401Z,78.20
2023-11-24T14:50:58.926Z,78.20
2023-11-24T14:56:06.400Z,78.20
2023-11-24T15:01:10.142Z,77.50
2023-11-24T15:06:16.558Z,77.10
2023-11-24T15:11:22.898Z,77.10
2023-11-24T15:16:30.264Z,76.90
2023-11-24T15:21:34.964Z,76.60
2023-11-24T15:26:41.122Z,76.50
2023-11-24T15:31:46.309Z,76.00
2023-11-24T15:36:50.857Z,75.80
2023-11-24T15:41:55.700Z,75.80
2023-11-24T15:46:59.290Z,75.50
2023-11-24T15:52:08.335Z,75.40
2023-11-24T15:57:14.179Z,75.30
2023-11-24T16:02:24.901Z,75.20
2023-11-24T16:07:33.701Z,75.20
2023-11-24T16:12:39.881Z,75.20
2023-11-24T16:17:43.434Z,75.20
2023-11-24T16:22:46.894Z,76.00
2023-11-24T16:27:51.693Z,75.90
2023-11-24T16:32:55.159Z,76.20
2023-11-24T16:37:58.984Z,75.10
2023-11-24T16:43:03.883Z,75.30
2023-11-24T16:48:07.941Z,71.90
2023-11-24T16:53:11.986Z,70.20
2023-11-24T16:58:17.070Z,69.00
2023-11-24T17:03:20.969Z,70.00
2023-11-24T17:08:24.981Z,70.50
2023-11-24T17:13:29.836Z,71.10
2023-11-24T17:18:34.362Z,71.50
2023-11-24T17:23:41.604Z,72.60
2023-11-24T17:28:47.984Z,72.40
2023-11-24T17:33:52.923Z,72.20
2023-11-24T17:38:56.485Z,72.20
2023-11-24T17:44:02.509Z,72.00
2023-11-24T17:49:06.672Z,73.00
2023-11-24T17:54:10.557Z,72.80
2023-11-24T17:59:15.369Z,73.00
2023-11-24T18:04:18.938Z,73.00
2023-11-24T18:09:24.226Z,76.20
2023-11-24T18:14:29.033Z,77.90
2023-11-24T18:19:33.766Z,77.40
2023-11-24T18:24:37.169Z,77.20
2023-11-24T18:29:42.432Z,76.80
2023-11-24T18:34:45.830Z,77.10
2023-11-24T18:39:49.409Z,76.60
2023-11-24T18:44:55.943Z,75.40
2023-11-24T18:49:59.365Z,74.70
2023-11-24T18:55:02.820Z,75.00
2023-11-24T19:00:14.723Z,74.70
2023-11-24T19:05:19.438Z,73.70
2023-11-24T19:10:23.078Z,73.20
2023-11-24T19:15:27.886Z,73.20
2023-11-24T19:20:31.412Z,72.80
2023-11-24T19:25:35.506Z,72.60
2023-11-24T19:30:40.290Z,72.60
2023-11-24T19:35:43.816Z,72.40
2023-11-24T19:40:47.627Z,72.30
2023-11-24T19:45:52.535Z,72.20
2023-11-24T19:50:56.009Z,72.10
2023-11-24T19:55:59.618Z,72.20
2023-11-24T20:01:04.495Z,72.20
2023-11-24T20:06:09.024Z,72.00
2023-11-24T20:11:12.957Z,71.70
2023-11-24T20:16:17.786Z,71.70
2023-11-24T20:21:21.233Z,71.50
2023-11-24T20:26:24.653Z,72.30
2023-11-24T20:31:29.499Z,72.20
2023-11-24T20:36:34.592Z,72.20
2023-11-24T20:41:41.277Z,72.40
2023-11-24T20:46:46.287Z,72.90
2023-11-24T20:51:49.884Z,73.50
2023-11-24T20:56:53.266Z,73.40
2023-11-24T21:01:58.367Z,73.20
2023-11-24T21:07:02.048Z,73.10
2023-11-24T21:12:06.197Z,72.90
2023-11-24T21:17:11.108Z,73.30
2023-11-24T21:22:14.726Z,73.50
2023-11-24T21:27:18.872Z,73.70
2023-11-24T21:32:24.232Z,73.40
2023-11-24T21:37:30.519Z,73.10
2023-11-24T21:42:34.181Z,72.10
2023-11-24T21:47:39.860Z,72.50
2023-11-24T21:52:43.738Z,72.10
2023-11-24T21:57:47.923Z,71.80
2023-11-24T22:02:52.975Z,71.40
2023-11-24T22:07:56.865Z,71.40
2023-11-24T22:13:02.869Z,71.20
2023-11-24T22:18:08.024Z,71.10
2023-11-24T22:23:11.472Z,71.30
2023-11-24T22:28:14.857Z,71.30
2023-11-24T22:33:19.713Z,71.20
2023-11-24T22:38:23.106Z,71.30
2023-11-24T22:43:27.196Z,71.20
2023-11-24T22:48:32.053Z,72.60
2023-11-24T22:53:35.414Z,73.30
2023-11-24T22:58:39.004Z,73.90
2023-11-24T23:03:45.571Z,74.20
2023-11-24T23:08:50.062Z,74.40
2023-11-24T23:13:54.577Z,74.70
2023-11-24T23:18:59.510Z,74.90
2023-11-24T23:24:03.057Z,75.00
2023-11-24T23:29:07.871Z,74.80
2023-11-24T23:34:13.277Z,75.00
2023-11-24T23:39:17.408Z,74.90
2023-11-24T23:44:20.879Z,74.80
2023-11-24T23:49:25.703Z,75.10
2023-11-24T23:54:29.503Z,75.00
2023-11-24T23:59:32.892Z,74.60
